sensor_id;sensor_type;location;lat;lon;timestamp;P1;durP1;ratioP1;P2;durP2;ratioP2
45382;SDS011;42455;51.660;5.824;2023-08-01T00:03:21;6.0;;;6.0;;
45382;SDS011;42455;51.660;5.824;2023-08-01T00:08:28;7.0;;;6.0;;
45382;SDS011;42455;51.660;5.824;2023-08-01T00:13:34;7.0;;;6.0;;
45382;SDS011;42455;51.660;5.824;2023-08-01T00:18:40;8.0;;;7.0;;
45382;SDS011;42455;51.660;5.824;2023-08-01T00:23:46;9.0;;;8.0;;
45382;SDS011;42455;51.660;5.824;2023-08-01T00:28:52;10.5;;;8.0;;
45382;SDS011;42455;51.660;5.824;2023-08-01T00:33:59;10.0;;;9.0;;
45382;SDS011;42455;51.660;5.824;2023-08-01T00:39:05;9.0;;;8.0;;
45382;SDS011;42455;51.660;5.824;2023-08-01T00:44:11;10.0;;;9.0;;
45382;SDS011;42455;51.660;5.824;2023-08-01T00:49:17;9.0;;;8.0;;
45382;SDS011;42455;51.660;5.824;2023-08-01T00:54:23;9.0;;;8.0;;
45382;SDS011;42455;51.660;5.824;2023-08-01T00:59:30;10.0;;;9.0;;
45382;SDS011;42455;51.660;5.824;2023-08-01T01:04:36;10.0;;;8.0;;
45382;SDS011;42455;51.660;5.824;2023-08-01T01:09:42;10.0;;;8.0;;
45382;SDS011;42455;51.660;5.824;2023-08-01T01:14:48;10.0;;;9.0;;
45382;SDS011;42455;51.660;5.824;2023-08-01T01:19:55;10.0;;;9.0;;
45382;SDS011;42455;51.660;5.824;2023-08-01T01:25:01;11.0;;;10.0;;
45382;SDS011;42455;51.660;5.824;2023-08-01T01:30:07;11.0;;;9.5;;
45382;SDS011;42455;51.660;5.824;2023-08-01T01:35:13;10.0;;;9.0;;
45382;SDS011;42455;51.660;5.824;2023-08-01T01:40:19;10.0;;;9.0;;
45382;SDS011;42455;51.660;5.824;2023-08-01T01:45:26;11.0;;;8.0;;
45382;SDS011;42455;51.660;5.824;2023-08-01T01:50:32;9.0;;;8.0;;
45382;SDS011;42455;51.660;5.824;2023-08-01T01:55:38;10.0;;;8.0;;
45382;SDS011;42455;51.660;5.824;2023-08-01T02:00:44;9.0;;;8.0;;
45382;SDS011;42455;51.660;5.824;2023-08-01T02:05:50;10.0;;;8.0;;
45382;SDS011;42455;51.660;5.824;2023-08-01T02:10:57;12.0;;;8.0;;
45382;SDS011;42455;51.660;5.824;2023-08-01T02:16:03;9.0;;;8.0;;
45382;SDS011;42455;51.660;5.824;2023-08-01T02:21:09;9.0;;;8.0;;
45382;SDS011;42455;51.660;5.824;2023-08-01T02:26:15;11.0;;;8.0;;
45382;SDS011;42455;51.660;5.824;2023-08-01T02:31:21;11.0;;;8.0;;
45382;SDS011;42455;51.660;5.824;2023-08-01T02:36:28;10.0;;;9.0;;
45382;SDS011;42455;51.660;5.824;2023-08-01T02:41:34;10.0;;;9.0;;
45382;SDS011;42455;51.660;5.824;2023-08-01T02:46:40;13.0;;;10.0;;
45382;SDS011;42455;51.660;5.824;2023-08-01T02:51:46;12.0;;;10.0;;
45382;SDS011;42455;51.660;5.824;2023-08-01T02:56:52;12.5;;;9.0;;
45382;SDS011;42455;51.660;5.824;2023-08-01T03:01:59;12.5;;;9.0;;
45382;SDS011;42455;51.660;5.824;2023-08-01T03:07:05;12.5;;;9.0;;
45382;SDS011;42455;51.660;5.824;2023-08-01T03:12:11;12.0;;;10.0;;
45382;SDS011;42455;51.660;5.824;2023-08-01T03:17:17;14.0;;;10.0;;
45382;SDS011;42455;51.660;5.824;2023-08-01T03:22:23;12.0;;;10.0;;
45382;SDS011;42455;51.660;5.824;2023-08-01T03:27:30;14.0;;;11.0;;
45382;SDS011;42455;51.660;5.824;2023-08-01T03:32:36;15.0;;;12.0;;
45382;SDS011;42455;51.660;5.824;2023-08-01T03:37:42;17.5;;;13.0;;
45382;SDS011;42455;51.660;5.824;2023-08-01T03:42:48;15.0;;;13.0;;
45382;SDS011;42455;51.660;5.824;2023-08-01T03:47:54;16.0;;;14.0;;
45382;SDS011;42455;51.660;5.824;2023-08-01T03:53:01;17.0;;;15.0;;
45382;SDS011;42455;51.660;5.824;2023-08-01T03:58:07;19.0;;;15.0;;
45382;SDS011;42455;51.660;5.824;2023-08-01T04:03:13;19.0;;;16.0;;
45382;SDS011;42455;51.660;5.824;2023-08-01T04:08:19;18.0;;;16.0;;
45382;SDS011;42455;51.660;5.824;2023-08-01T04:13:25;20.0;;;16.0;;
45382;SDS011;42455;51.660;5.824;2023-08-01T04:18:32;22.5;;;17.0;;
45382;SDS011;42455;51.660;5.824;2023-08-01T04:23:38;20.0;;;17.0;;
45382;SDS011;42455;51.660;5.824;2023-08-01T04:28:45;20.0;;;17.0;;
45382;SDS011;42455;51.660;5.824;2023-08-01T04:33:50;22.0;;;18.0;;
45382;SDS011;42455;51.660;5.824;2023-08-01T04:38:57;22.0;;;18.0;;
45382;SDS011;42455;51.660;5.824;2023-08-01T04:44:03;22.0;;;18.0;;
45382;SDS011;42455;51.660;5.824;2023-08-01T04:49:09;21.0;;;18.0;;
45382;SDS011;42455;51.660;5.824;2023-08-01T04:54:15;22.0;;;19.0;;
45382;SDS011;42455;51.660;5.824;2023-08-01T04:59:21;21.0;;;17.0;;
45382;SDS011;42455;51.660;5.824;2023-08-01T05:04:28;20.0;;;17.5;;
45382;SDS011;42455;51.660;5.824;2023-08-01T05:09:34;21.0;;;18.0;;
45382;SDS011;42455;51.660;5.824;2023-08-01T05:14:40;21.0;;;18.0;;
45382;SDS011;42455;51.660;5.824;2023-08-01T05:19:46;23.0;;;19.0;;
45382;SDS011;42455;51.660;5.824;2023-08-01T05:24:51;21.5;;;18.0;;
45382;SDS011;42455;51.660;5.824;2023-08-01T05:29:58;22.0;;;18.0;;
45382;SDS011;42455;51.660;5.824;2023-08-01T05:35:04;22.0;;;20.0;;
45382;SDS011;42455;51.660;5.824;2023-08-01T05:40:10;20.0;;;18.0;;
45382;SDS011;42455;51.660;5.824;2023-08-01T05:45:16;19.0;;;17.0;;
45382;SDS011;42455;51.660;5.824;2023-08-01T05:50:23;20.0;;;17.0;;
45382;SDS011;42455;51.660;5.824;2023-08-01T05:55:29;20.0;;;18.0;;
45382;SDS011;42455;51.660;5.824;2023-08-01T06:00:35;21.0;;;18.0;;
45382;SDS011;42455;51.660;5.824;2023-08-01T06:05:41;20.0;;;18.0;;
45382;SDS011;42455;51.660;5.824;2023-08-01T06:10:47;19.0;;;17.0;;
45382;SDS011;42455;51.660;5.824;2023-08-01T06:15:54;18.0;;;16.0;;
45382;SDS011;42455;51.660;5.824;2023-08-01T06:21:00;18.0;;;16.0;;
45382;SDS011;42455;51.660;5.824;2023-08-01T06:26:06;17.0;;;15.0;;
45382;SDS011;42455;51.660;5.824;2023-08-01T06:31:12;16.0;;;14.0;;
45382;SDS011;42455;51.660;5.824;2023-08-01T06:36:18;15.0;;;13.0;;
45382;SDS011;42455;51.660;5.824;2023-08-01T06:41:25;16.0;;;12.0;;
45382;SDS011;42455;51.660;5.824;2023-08-01T06:46:31;16.0;;;12.0;;
45382;SDS011;42455;51.660;5.824;2023-08-01T06:51:37;15.0;;;11.5;;
45382;SDS011;42455;51.660;5.824;2023-08-01T06:56:43;15.5;;;12.0;;
45382;SDS011;42455;51.660;5.824;2023-08-01T07:01:49;13.0;;;11.0;;
45382;SDS011;42455;51.660;5.824;2023-08-01T07:06:56;14.0;;;10.0;;
45382;SDS011;42455;51.660;5.824;2023-08-01T07:12:02;11.0;;;8.0;;
45382;SDS011;42455;51.660;5.824;2023-08-01T07:17:08;10.0;;;8.0;;
45382;SDS011;42455;51.660;5.824;2023-08-01T07:22:14;10.0;;;7.0;;
45382;SDS011;42455;51.660;5.824;2023-08-01T07:27:20;9.0;;;7.0;;
45382;SDS011;42455;51.660;5.824;2023-08-01T07:32:27;10.0;;;7.0;;
45382;SDS011;42455;51.660;5.824;2023-08-01T07:37:33;10.0;;;7.0;;
45382;SDS011;42455;51.660;5.824;2023-08-01T07:42:39;8.0;;;6.0;;
45382;SDS011;42455;51.660;5.824;2023-08-01T07:47:45;9.0;;;5.0;;
45382;SDS011;42455;51.660;5.824;2023-08-01T07:52:51;7.0;;;4.0;;
45382;SDS011;42455;51.660;5.824;2023-08-01T07:57:58;8.5;;;5.0;;
45382;SDS011;42455;51.660;5.824;2023-08-01T08:03:04;9.0;;;5.0;;
45382;SDS011;42455;51.660;5.824;2023-08-01T08:08:10;10.0;;;6.0;;
45382;SDS011;42455;51.660;5.824;2023-08-01T08:13:16;8.0;;;6.0;;
45382;SDS011;42455;51.660;5.824;2023-08-01T08:18:23;10.0;;;6.5;;
45382;SDS011;42455;51.660;5.824;2023-08-01T08:23:29;9.0;;;6.0;;
45382;SDS011;42455;51.660;5.824;2023-08-01T08:28:36;11.0;;;6.0;;
45382;SDS011;42455;51.660;5.824;2023-08-01T08:33:41;8.0;;;5.0;;
45382;SDS011;42455;51.660;5.824;2023-08-01T08:38:47;8.0;;;6.0;;
45382;SDS011;42455;51.660;5.824;2023-08-01T08:43:56;8.0;;;5.0;;
45382;SDS011;42455;51.660;5.824;2023-08-01T08:49:00;7.0;;;5.0;;
45382;SDS011;42455;51.660;5.824;2023-08-01T08:54:06;7.0;;;5.0;;
45382;SDS011;42455;51.660;5.824;2023-08-01T08:59:12;5.0;;;4.0;;
45382;SDS011;42455;51.660;5.824;2023-08-01T09:04:18;10.0;;;6.0;;
45382;SDS011;42455;51.660;5.824;2023-08-01T09:09:25;7.0;;;5.0;;
45382;SDS011;42455;51.660;5.824;2023-08-01T09:14:31;6.0;;;4.0;;
45382;SDS011;42455;51.660;5.824;2023-08-01T09:19:37;4.0;;;2.0;;
45382;SDS011;42455;51.660;5.824;2023-08-01T09:24:50;3.0;;;1.0;;
45382;SDS011;42455;51.660;5.824;2023-08-01T09:29:49;3.0;;;2.0;;
45382;SDS011;42455;51.660;5.824;2023-08-01T09:34:58;5.0;;;3.0;;
45382;SDS011;42455;51.660;5.824;2023-08-01T09:40:02;4.5;;;3.0;;
45382;SDS011;42455;51.660;5.824;2023-08-01T09:45:11;9.0;;;4.0;;
45382;SDS011;42455;51.660;5.824;2023-08-01T09:50:19;6.0;;;3.0;;
45382;SDS011;42455;51.660;5.824;2023-08-01T09:55:21;7.5;;;3.0;;
45382;SDS011;42455;51.660;5.824;2023-08-01T10:00:27;5.0;;;3.0;;
45382;SDS011;42455;51.660;5.824;2023-08-01T10:05:34;6.0;;;3.0;;
45382;SDS011;42455;51.660;5.824;2023-08-01T10:10:39;6.0;;;4.0;;
45382;SDS011;42455;51.660;5.824;2023-08-01T10:15:45;7.0;;;4.0;;
45382;SDS011;42455;51.660;5.824;2023-08-01T10:20:53;7.0;;;4.0;;
45382;SDS011;42455;51.660;5.824;2023-08-01T10:25:58;7.0;;;4.0;;
45382;SDS011;42455;51.660;5.824;2023-08-01T10:31:08;7.0;;;3.0;;
45382;SDS011;42455;51.660;5.824;2023-08-01T10:36:12;6.0;;;4.0;;
45382;SDS011;42455;51.660;5.824;2023-08-01T10:41:17;6.0;;;3.0;;
45382;SDS011;42455;51.660;5.824;2023-08-01T10:46:23;6.0;;;3.0;;
45382;SDS011;42455;51.660;5.824;2023-08-01T10:51:34;6.0;;;3.0;;
45382;SDS011;42455;51.660;5.824;2023-08-01T10:56:34;6.5;;;3.0;;
45382;SDS011;42455;51.660;5.824;2023-08-01T11:01:42;8.5;;;3.0;;
45382;SDS011;42455;51.660;5.824;2023-08-01T11:06:47;6.0;;;3.0;;
45382;SDS011;42455;51.660;5.824;2023-08-01T11:11:53;4.0;;;3.0;;
45382;SDS011;42455;51.660;5.824;2023-08-01T11:16:59;5.0;;;3.0;;
45382;SDS011;42455;51.660;5.824;2023-08-01T11:22:10;6.0;;;3.0;;
45382;SDS011;42455;51.660;5.824;2023-08-01T11:27:10;5.5;;;3.0;;
45382;SDS011;42455;51.660;5.824;2023-08-01T11:32:17;5.5;;;3.0;;
45382;SDS011;42455;51.660;5.824;2023-08-01T11:37:25;6.0;;;3.0;;
45382;SDS011;42455;51.660;5.824;2023-08-01T11:42:30;6.0;;;2.0;;
45382;SDS011;42455;51.660;5.824;2023-08-01T11:47:35;4.5;;;2.0;;
45382;SDS011;42455;51.660;5.824;2023-08-01T11:52:46;7.0;;;4.0;;
45382;SDS011;42455;51.660;5.824;2023-08-01T11:57:51;6.0;;;3.0;;
45382;SDS011;42455;51.660;5.824;2023-08-01T12:03:10;8.0;;;3.0;;
45382;SDS011;42455;51.660;5.824;2023-08-01T12:08:07;4.0;;;2.0;;
45382;SDS011;42455;51.660;5.824;2023-08-01T12:13:06;4.0;;;2.0;;
45382;SDS011;42455;51.660;5.824;2023-08-01T12:18:12;5.0;;;2.0;;
45382;SDS011;42455;51.660;5.824;2023-08-01T12:23:19;6.0;;;2.0;;
45382;SDS011;42455;51.660;5.824;2023-08-01T12:28:25;8.0;;;3.0;;
45382;SDS011;42455;51.660;5.824;2023-08-01T12:33:32;5.0;;;2.0;;
45382;SDS011;42455;51.660;5.824;2023-08-01T12:38:37;3.0;;;2.0;;
45382;SDS011;42455;51.660;5.824;2023-08-01T12:43:43;5.0;;;2.0;;
45382;SDS011;42455;51.660;5.824;2023-08-01T12:53:56;3.0;;;1.0;;
45382;SDS011;42455;51.660;5.824;2023-08-01T12:59:02;4.0;;;2.0;;
45382;SDS011;42455;51.660;5.824;2023-08-01T13:04:08;4.0;;;2.0;;
45382;SDS011;42455;51.660;5.824;2023-08-01T13:09:14;3.0;;;2.0;;
45382;SDS011;42455;51.660;5.824;2023-08-01T13:14:21;5.0;;;2.0;;
45382;SDS011;42455;51.660;5.824;2023-08-01T13:19:27;5.0;;;2.0;;
45382;SDS011;42455;51.660;5.824;2023-08-01T13:24:33;5.0;;;2.0;;
45382;SDS011;42455;51.660;5.824;2023-08-01T13:29:39;5.0;;;2.0;;
45382;SDS011;42455;51.660;5.824;2023-08-01T13:34:46;4.0;;;2.0;;
45382;SDS011;42455;51.660;5.824;2023-08-01T13:39:52;4.0;;;2.0;;
45382;SDS011;42455;51.660;5.824;2023-08-01T13:44:58;3.0;;;1.0;;
45382;SDS011;42455;51.660;5.824;2023-08-01T13:50:04;2.0;;;1.0;;
45382;SDS011;42455;51.660;5.824;2023-08-01T13:55:10;5.0;;;2.0;;
45382;SDS011;42455;51.660;5.824;2023-08-01T14:00:17;3.0;;;1.0;;
45382;SDS011;42455;51.660;5.824;2023-08-01T14:05:24;4.0;;;1.0;;
45382;SDS011;42455;51.660;5.824;2023-08-01T14:10:29;2.5;;;1.0;;
45382;SDS011;42455;51.660;5.824;2023-08-01T14:15:35;3.0;;;1.0;;
45382;SDS011;42455;51.660;5.824;2023-08-01T14:20:41;4.0;;;1.0;;
45382;SDS011;42455;51.660;5.824;2023-08-01T14:25:48;4.0;;;1.0;;
45382;SDS011;42455;51.660;5.824;2023-08-01T14:36:00;3.0;;;1.0;;
45382;SDS011;42455;51.660;5.824;2023-08-01T14:41:06;2.0;;;1.0;;
45382;SDS011;42455;51.660;5.824;2023-08-01T14:46:12;4.5;;;2.0;;
45382;SDS011;42455;51.660;5.824;2023-08-01T14:51:19;3.0;;;1.0;;
45382;SDS011;42455;51.660;5.824;2023-08-01T14:56:25;3.0;;;1.0;;
45382;SDS011;42455;51.660;5.824;2023-08-01T15:01:31;3.0;;;1.0;;
45382;SDS011;42455;51.660;5.824;2023-08-01T15:06:37;3.5;;;1.0;;
45382;SDS011;42455;51.660;5.824;2023-08-01T15:11:44;3.0;;;1.0;;
45382;SDS011;42455;51.660;5.824;2023-08-01T15:16:50;3.0;;;1.0;;
45382;SDS011;42455;51.660;5.824;2023-08-01T15:21:56;2.0;;;1.0;;
45382;SDS011;42455;51.660;5.824;2023-08-01T15:27:02;2.0;;;1.0;;
45382;SDS011;42455;51.660;5.824;2023-08-01T15:32:08;2.0;;;1.0;;
45382;SDS011;42455;51.660;5.824;2023-08-01T15:37:15;2.0;;;1.0;;
45382;SDS011;42455;51.660;5.824;2023-08-01T15:42:21;3.0;;;1.0;;
45382;SDS011;42455;51.660;5.824;2023-08-01T15:47:27;3.0;;;1.0;;
45382;SDS011;42455;51.660;5.824;2023-08-01T15:52:33;4.0;;;1.0;;
45382;SDS011;42455;51.660;5.824;2023-08-01T15:57:39;3.0;;;1.0;;
45382;SDS011;42455;51.660;5.824;2023-08-01T16:02:46;2.0;;;1.0;;
45382;SDS011;42455;51.660;5.824;2023-08-01T16:07:52;4.0;;;1.0;;
45382;SDS011;42455;51.660;5.824;2023-08-01T16:12:58;3.0;;;1.0;;
45382;SDS011;42455;51.660;5.824;2023-08-01T16:18:04;2.0;;;1.0;;
45382;SDS011;42455;51.660;5.824;2023-08-01T16:23:11;3.0;;;1.0;;
45382;SDS011;42455;51.660;5.824;2023-08-01T16:28:17;5.0;;;1.0;;
45382;SDS011;42455;51.660;5.824;2023-08-01T16:33:23;2.0;;;1.0;;
45382;SDS011;42455;51.660;5.824;2023-08-01T16:38:29;2.0;;;1.0;;
45382;SDS011;42455;51.660;5.824;2023-08-01T16:43:35;3.5;;;1.0;;
45382;SDS011;42455;51.660;5.824;2023-08-01T16:48:42;3.0;;;1.0;;
45382;SDS011;42455;51.660;5.824;2023-08-01T16:53:48;3.0;;;1.0;;
45382;SDS011;42455;51.660;5.824;2023-08-01T16:58:53;4.0;;;1.0;;
45382;SDS011;42455;51.660;5.824;2023-08-01T17:03:59;2.0;;;1.0;;
45382;SDS011;42455;51.660;5.824;2023-08-01T17:09:06;3.0;;;1.0;;
45382;SDS011;42455;51.660;5.824;2023-08-01T17:14:12;4.0;;;1.0;;
45382;SDS011;42455;51.660;5.824;2023-08-01T17:19:18;4.0;;;1.0;;
45382;SDS011;42455;51.660;5.824;2023-08-01T17:24:24;2.0;;;1.0;;
45382;SDS011;42455;51.660;5.824;2023-08-01T17:29:30;4.0;;;1.0;;
45382;SDS011;42455;51.660;5.824;2023-08-01T17:34:36;3.0;;;1.0;;
45382;SDS011;42455;51.660;5.824;2023-08-01T17:39:43;5.0;;;1.5;;
45382;SDS011;42455;51.660;5.824;2023-08-01T17:44:49;3.5;;;1.5;;
45382;SDS011;42455;51.660;5.824;2023-08-01T17:49:55;4.0;;;2.0;;
45382;SDS011;42455;51.660;5.824;2023-08-01T17:55:01;4.0;;;1.0;;
45382;SDS011;42455;51.660;5.824;2023-08-01T18:00:08;5.0;;;2.0;;
45382;SDS011;42455;51.660;5.824;2023-08-01T18:05:14;4.5;;;2.0;;
45382;SDS011;42455;51.660;5.824;2023-08-01T18:10:20;6.0;;;2.0;;
45382;SDS011;42455;51.660;5.824;2023-08-01T18:15:26;5.0;;;2.0;;
45382;SDS011;42455;51.660;5.824;2023-08-01T18:20:32;5.0;;;1.0;;
45382;SDS011;42455;51.660;5.824;2023-08-01T18:25:38;4.0;;;2.0;;
45382;SDS011;42455;51.660;5.824;2023-08-01T18:30:45;2.5;;;1.0;;
45382;SDS011;42455;51.660;5.824;2023-08-01T18:35:51;3.0;;;1.0;;
45382;SDS011;42455;51.660;5.824;2023-08-01T18:40:57;5.0;;;1.0;;
45382;SDS011;42455;51.660;5.824;2023-08-01T18:46:03;3.0;;;1.0;;
45382;SDS011;42455;51.660;5.824;2023-08-01T18:51:10;3.0;;;1.0;;
45382;SDS011;42455;51.660;5.824;2023-08-01T18:56:16;4.0;;;1.0;;
45382;SDS011;42455;51.660;5.824;2023-08-01T19:01:22;3.0;;;1.5;;
45382;SDS011;42455;51.660;5.824;2023-08-01T19:06:28;4.0;;;1.5;;
45382;SDS011;42455;51.660;5.824;2023-08-01T19:11:34;4.5;;;2.0;;
45382;SDS011;42455;51.660;5.824;2023-08-01T19:16:41;4.0;;;1.0;;
45382;SDS011;42455;51.660;5.824;2023-08-01T19:21:47;3.0;;;1.0;;
45382;SDS011;42455;51.660;5.824;2023-08-01T19:26:53;4.0;;;1.0;;
45382;SDS011;42455;51.660;5.824;2023-08-01T19:31:59;4.0;;;2.0;;
45382;SDS011;42455;51.660;5.824;2023-08-01T19:37:05;6.0;;;2.0;;
45382;SDS011;42455;51.660;5.824;2023-08-01T19:42:12;4.0;;;2.0;;
45382;SDS011;42455;51.660;5.824;2023-08-01T19:47:18;5.0;;;2.0;;
45382;SDS011;42455;51.660;5.824;2023-08-01T19:52:24;7.0;;;2.0;;
45382;SDS011;42455;51.660;5.824;2023-08-01T19:57:30;6.0;;;2.0;;
45382;SDS011;42455;51.660;5.824;2023-08-01T20:02:36;6.0;;;2.0;;
45382;SDS011;42455;51.660;5.824;2023-08-01T20:07:43;5.0;;;2.0;;
45382;SDS011;42455;51.660;5.824;2023-08-01T20:12:49;7.0;;;2.0;;
45382;SDS011;42455;51.660;5.824;2023-08-01T20:17:55;7.0;;;2.0;;
45382;SDS011;42455;51.660;5.824;2023-08-01T20:23:01;6.0;;;2.0;;
45382;SDS011;42455;51.660;5.824;2023-08-01T20:28:07;5.0;;;3.0;;
45382;SDS011;42455;51.660;5.824;2023-08-01T20:33:14;7.0;;;3.0;;
45382;SDS011;42455;51.660;5.824;2023-08-01T20:38:20;5.0;;;2.0;;
45382;SDS011;42455;51.660;5.824;2023-08-01T20:43:26;5.5;;;2.0;;
45382;SDS011;42455;51.660;5.824;2023-08-01T20:48:32;5.0;;;2.0;;
45382;SDS011;42455;51.660;5.824;2023-08-01T20:53:39;5.0;;;2.0;;
45382;SDS011;42455;51.660;5.824;2023-08-01T20:58:45;6.0;;;2.0;;
45382;SDS011;42455;51.660;5.824;2023-08-01T21:03:51;7.0;;;3.0;;
45382;SDS011;42455;51.660;5.824;2023-08-01T21:08:57;5.0;;;2.0;;
45382;SDS011;42455;51.660;5.824;2023-08-01T21:14:03;7.0;;;3.0;;
45382;SDS011;42455;51.660;5.824;2023-08-01T21:19:10;7.0;;;3.0;;
45382;SDS011;42455;51.660;5.824;2023-08-01T21:24:16;5.0;;;2.0;;
45382;SDS011;42455;51.660;5.824;2023-08-01T21:29:22;4.0;;;2.0;;
45382;SDS011;42455;51.660;5.824;2023-08-01T21:34:28;5.0;;;2.0;;
45382;SDS011;42455;51.660;5.824;2023-08-01T21:39:34;6.0;;;3.0;;
45382;SDS011;42455;51.660;5.824;2023-08-01T21:44:41;4.0;;;2.0;;
45382;SDS011;42455;51.660;5.824;2023-08-01T21:49:47;5.0;;;3.0;;
45382;SDS011;42455;51.660;5.824;2023-08-01T21:54:53;5.0;;;2.0;;
45382;SDS011;42455;51.660;5.824;2023-08-01T21:59:59;6.0;;;3.0;;
45382;SDS011;42455;51.660;5.824;2023-08-01T22:05:05;6.0;;;3.0;;
45382;SDS011;42455;51.660;5.824;2023-08-01T22:10:12;6.0;;;3.0;;
45382;SDS011;42455;51.660;5.824;2023-08-01T22:15:18;5.0;;;3.0;;
45382;SDS011;42455;51.660;5.824;2023-08-01T22:20:24;4.0;;;3.0;;
45382;SDS011;42455;51.660;5.824;2023-08-01T22:25:30;6.0;;;3.0;;
45382;SDS011;42455;51.660;5.824;2023-08-01T22:30:36;6.0;;;3.0;;
45382;SDS011;42455;51.660;5.824;2023-08-01T22:35:42;6.0;;;3.0;;
45382;SDS011;42455;51.660;5.824;2023-08-01T22:40:48;5.5;;;3.0;;
45382;SDS011;42455;51.660;5.824;2023-08-01T22:45:54;7.0;;;3.0;;
45382;SDS011;42455;51.660;5.824;2023-08-01T22:51:00;6.0;;;3.0;;
45382;SDS011;42455;51.660;5.824;2023-08-01T22:56:06;7.0;;;4.0;;
45382;SDS011;42455;51.660;5.824;2023-08-01T23:01:14;7.0;;;4.0;;
45382;SDS011;42455;51.660;5.824;2023-08-01T23:06:19;7.0;;;4.0;;
45382;SDS011;42455;51.660;5.824;2023-08-01T23:11:25;8.0;;;4.0;;
45382;SDS011;42455;51.660;5.824;2023-08-01T23:16:31;8.0;;;3.0;;
45382;SDS011;42455;51.660;5.824;2023-08-01T23:21:38;7.0;;;3.0;;
45382;SDS011;42455;51.660;5.824;2023-08-01T23:26:44;6.5;;;4.0;;
45382;SDS011;42455;51.660;5.824;2023-08-01T23:31:50;8.0;;;3.0;;
45382;SDS011;42455;51.660;5.824;2023-08-01T23:36:56;8.0;;;4.0;;
45382;SDS011;42455;51.660;5.824;2023-08-01T23:42:03;6.0;;;3.0;;
45382;SDS011;42455;51.660;5.824;2023-08-01T23:47:09;6.0;;;3.0;;
45382;SDS011;42455;51.660;5.824;2023-08-01T23:52:15;6.0;;;3.0;;
45382;SDS011;42455;51.660;5.824;2023-08-01T23:57:21;5.0;;;3.0;;
